createdAt,value
2017-01-18T00:00:31.484Z,0
2017-01-18T00:01:40.952Z,0
2017-01-18T00:02:51.190Z,0
2017-01-18T00:04:00.281Z,0
2017-01-18T00:05:08.971Z,0
2017-01-18T00:06:18.433Z,0
2017-01-18T00:07:27.497Z,0
2017-01-18T00:08:36.188Z,0
2017-01-18T00:09:45.256Z,0
2017-01-18T00:10:54.329Z,0
2017-01-18T00:12:03.791Z,0
2017-01-18T00:13:13.259Z,0
2017-01-18T00:14:22.728Z,0
2017-01-18T00:15:31.410Z,0
2017-01-18T00:16:40.869Z,0
2017-01-18T00:17:50.359Z,0
2017-01-18T00:18:59.828Z,0
2017-01-18T00:20:08.902Z,0
2017-01-18T00:21:17.976Z,0
2017-01-18T00:22:27.052Z,0
2017-01-18T00:23:36.121Z,0
2017-01-18T00:24:44.816Z,0
2017-01-18T00:25:53.507Z,0
2017-01-18T00:27:02.223Z,0
2017-01-18T00:28:11.293Z,0
2017-01-18T00:29:20.365Z,0
2017-01-18T00:30:29.824Z,0
2017-01-18T00:31:38.909Z,0
2017-01-18T00:32:48.757Z,0
2017-01-18T00:33:57.836Z,0
2017-01-18T00:35:06.525Z,0
2017-01-18T00:36:16.142Z,0
2017-01-18T00:37:25.628Z,0
2017-01-18T00:38:34.341Z,0
2017-01-18T00:39:43.034Z,0
2017-01-18T00:40:51.716Z,0
2017-01-18T00:42:00.394Z,0
2017-01-18T00:43:09.859Z,0
2017-01-18T00:44:19.327Z,0
2017-01-18T00:45:28.405Z,0
2017-01-18T00:46:37.871Z,0
2017-01-18T00:47:46.950Z,0
2017-01-18T00:48:56.012Z,0
2017-01-18T00:50:04.690Z,0
2017-01-18T00:51:13.370Z,0
2017-01-18T00:52:22.451Z,0
2017-01-18T00:53:31.529Z,0
2017-01-18T00:54:40.610Z,0
2017-01-18T00:55:49.687Z,0
2017-01-18T00:56:58.359Z,0
2017-01-18T00:58:07.820Z,0
2017-01-18T00:59:16.501Z,0
2017-01-18T01:00:25.188Z,0
2017-01-18T01:01:33.865Z,0
2017-01-18T01:02:42.934Z,0
2017-01-18T01:03:51.609Z,0
2017-01-18T01:05:00.289Z,0
2017-01-18T01:06:08.964Z,0
2017-01-18T01:07:18.033Z,0
2017-01-18T01:08:26.707Z,0
2017-01-18T01:09:35.770Z,0
2017-01-18T01:10:45.224Z,0
2017-01-18T01:11:54.687Z,0
2017-01-18T01:13:04.161Z,0
2017-01-18T01:14:12.841Z,0
2017-01-18T01:15:21.518Z,0
2017-01-18T01:16:30.604Z,0
2017-01-18T01:17:39.290Z,0
2017-01-18T01:18:48.032Z,0
2017-01-18T01:19:56.700Z,0
2017-01-18T01:21:05.382Z,0
2017-01-18T01:22:14.848Z,0
2017-01-18T01:23:23.928Z,0
2017-01-18T01:24:32.990Z,0
2017-01-18T01:25:41.679Z,0
2017-01-18T01:26:50.386Z,0
2017-01-18T01:27:59.838Z,0
2017-01-18T01:29:08.534Z,0
2017-01-18T01:30:17.206Z,0
2017-01-18T01:31:26.280Z,0
2017-01-18T01:32:35.746Z,0
2017-01-18T01:33:44.822Z,0
2017-01-18T01:34:53.885Z,0
2017-01-18T01:36:03.743Z,0
2017-01-18T01:37:13.601Z,0
2017-01-18T01:38:22.683Z,0
2017-01-18T01:39:31.453Z,0
2017-01-18T01:40:40.920Z,0
2017-01-18T01:41:50.105Z,0
2017-01-18T01:42:59.576Z,0
2017-01-18T01:44:09.040Z,0
2017-01-18T01:45:17.732Z,0
2017-01-18T01:46:26.806Z,0
2017-01-18T01:47:35.869Z,0
2017-01-18T01:48:45.333Z,0
2017-01-18T01:49:54.397Z,0
2017-01-18T01:51:03.086Z,0
2017-01-18T01:52:12.166Z,0
2017-01-18T01:53:21.242Z,0
2017-01-18T01:54:30.696Z,0
2017-01-18T01:55:40.160Z,0
2017-01-18T01:56:49.243Z,0
2017-01-18T01:57:58.722Z,0
2017-01-18T01:59:07.416Z,0
2017-01-18T02:00:16.502Z,0
2017-01-18T02:01:25.955Z,0
2017-01-18T02:02:34.632Z,0
2017-01-18T02:03:43.323Z,0
2017-01-18T02:04:52.782Z,0
2017-01-18T02:06:01.852Z,0
2017-01-18T02:07:10.935Z,0
2017-01-18T02:08:20.404Z,0
2017-01-18T02:09:29.458Z,0
2017-01-18T02:10:38.138Z,0
2017-01-18T02:11:46.822Z,0
2017-01-18T02:12:55.502Z,0
2017-01-18T02:14:04.625Z,0
2017-01-18T02:15:14.120Z,0
2017-01-18T02:16:23.591Z,0
2017-01-18T02:17:32.284Z,0
2017-01-18T02:18:41.379Z,0
2017-01-18T02:19:51.239Z,0
2017-01-18T02:21:00.306Z,0
2017-01-18T02:22:09.371Z,0
2017-01-18T02:23:18.826Z,0
2017-01-18T02:24:27.908Z,0
2017-01-18T02:25:36.980Z,0
2017-01-18T02:26:46.484Z,0
2017-01-18T02:27:55.944Z,0
2017-01-18T02:29:05.449Z,0
2017-01-18T02:30:14.916Z,0
2017-01-18T02:31:23.627Z,0
2017-01-18T02:32:33.082Z,0
2017-01-18T02:33:42.534Z,0
2017-01-18T02:34:51.259Z,0
2017-01-18T02:35:59.934Z,0
2017-01-18T02:37:08.633Z,0
2017-01-18T02:38:17.694Z,0
2017-01-18T02:39:26.405Z,0
2017-01-18T02:40:35.087Z,0
2017-01-18T02:41:43.766Z,0
2017-01-18T02:42:52.854Z,0
2017-01-18T02:44:01.558Z,0
2017-01-18T02:45:11.021Z,0
2017-01-18T02:46:20.090Z,0
2017-01-18T02:47:29.165Z,0
2017-01-18T02:48:37.845Z,0
2017-01-18T02:49:46.527Z,0
2017-01-18T02:50:55.608Z,0
2017-01-18T02:52:04.682Z,0
2017-01-18T02:53:13.765Z,0
2017-01-18T02:54:23.614Z,0
2017-01-18T02:55:32.689Z,0
2017-01-18T02:56:41.757Z,0
2017-01-18T02:57:50.448Z,0
2017-01-18T02:58:59.513Z,0
2017-01-18T03:00:08.599Z,0
2017-01-18T03:01:17.675Z,0
2017-01-18T03:02:26.751Z,0
2017-01-18T03:03:36.209Z,0
2017-01-18T03:04:45.317Z,0
2017-01-18T03:05:54.390Z,0
2017-01-18T03:07:03.458Z,0
2017-01-18T03:08:12.538Z,0
2017-01-18T03:09:21.630Z,0
2017-01-18T03:10:31.503Z,0
2017-01-18T03:11:40.964Z,0
2017-01-18T03:12:50.032Z,0
2017-01-18T03:13:59.110Z,0
2017-01-18T03:15:08.591Z,0
2017-01-18T03:16:17.278Z,0
2017-01-18T03:17:26.730Z,0
2017-01-18T03:18:35.429Z,0
2017-01-18T03:19:44.925Z,0
2017-01-18T03:20:53.622Z,0
2017-01-18T03:22:02.323Z,0
2017-01-18T03:23:11.401Z,0
2017-01-18T03:24:20.475Z,0
2017-01-18T03:25:29.935Z,0
2017-01-18T03:26:39.389Z,0
2017-01-18T03:27:48.455Z,0
2017-01-18T03:28:57.134Z,0
2017-01-18T03:30:06.208Z,0
2017-01-18T03:31:15.298Z,0
2017-01-18T03:32:24.751Z,0
2017-01-18T03:33:34.224Z,0
2017-01-18T03:34:42.913Z,0
2017-01-18T03:35:51.602Z,0
2017-01-18T03:37:00.291Z,0
2017-01-18T03:38:09.393Z,0
2017-01-18T03:39:18.471Z,0
2017-01-18T03:40:27.550Z,0
2017-01-18T03:41:36.247Z,0
2017-01-18T03:42:44.952Z,0
2017-01-18T03:43:54.843Z,0
2017-01-18T03:45:03.534Z,0
2017-01-18T03:46:12.218Z,0
2017-01-18T03:47:20.922Z,0
2017-01-18T03:48:30.416Z,0
2017-01-18T03:49:39.887Z,0
2017-01-18T03:50:49.372Z,0
2017-01-18T03:51:58.434Z,0
2017-01-18T03:53:08.292Z,0
2017-01-18T03:54:17.365Z,0
2017-01-18T03:55:26.049Z,0
2017-01-18T03:56:35.135Z,0
2017-01-18T03:57:44.614Z,0
2017-01-18T03:58:53.293Z,0
2017-01-18T04:00:03.153Z,0
2017-01-18T04:01:12.234Z,0
2017-01-18T04:02:21.715Z,0
2017-01-18T04:03:30.781Z,0
2017-01-18T04:04:40.241Z,0
2017-01-18T04:05:48.920Z,0
2017-01-18T04:06:58.010Z,0
2017-01-18T04:08:07.083Z,0
2017-01-18T04:09:16.152Z,0
2017-01-18T04:10:25.222Z,0
2017-01-18T04:11:35.067Z,0
2017-01-18T04:12:43.744Z,0
2017-01-18T04:13:52.441Z,0
2017-01-18T04:15:01.921Z,0
2017-01-18T04:16:10.997Z,0
2017-01-18T04:17:19.674Z,0
2017-01-18T04:18:28.351Z,0
2017-01-18T04:19:37.820Z,0
2017-01-18T04:20:46.901Z,0
2017-01-18T04:21:56.752Z,0
2017-01-18T04:23:05.447Z,0
2017-01-18T04:24:14.130Z,0
2017-01-18T04:25:22.822Z,0
2017-01-18T04:26:31.888Z,0
2017-01-18T04:27:40.961Z,0
2017-01-18T04:28:50.417Z,0
2017-01-18T04:29:59.104Z,0
2017-01-18T04:31:08.184Z,0
2017-01-18T04:32:16.872Z,0
2017-01-18T04:33:26.349Z,0
2017-01-18T04:34:35.044Z,0
2017-01-18T04:35:44.120Z,0
2017-01-18T04:36:52.813Z,0
2017-01-18T04:38:02.273Z,0
2017-01-18T04:39:12.525Z,0
2017-01-18T04:40:21.600Z,0
2017-01-18T04:41:30.678Z,0
2017-01-18T04:42:39.386Z,0
2017-01-18T04:43:48.077Z,0
2017-01-18T04:44:56.766Z,0
2017-01-18T04:46:05.450Z,0
2017-01-18T04:47:14.518Z,0
2017-01-18T04:48:23.599Z,0
2017-01-18T04:49:32.657Z,0
2017-01-18T04:50:41.721Z,0
2017-01-18T04:51:50.398Z,0
2017-01-18T04:53:00.237Z,0
2017-01-18T04:54:09.690Z,0
2017-01-18T04:55:18.769Z,0
2017-01-18T04:56:27.843Z,0
2017-01-18T04:57:36.541Z,0
2017-01-18T04:58:46.005Z,0
2017-01-18T04:59:54.685Z,0
2017-01-18T05:01:03.361Z,0
2017-01-18T05:02:12.817Z,0
2017-01-18T05:03:22.264Z,0
2017-01-18T05:04:31.347Z,0
2017-01-18T05:05:41.202Z,0
2017-01-18T05:06:51.157Z,0
2017-01-18T05:08:01.016Z,0
2017-01-18T05:09:10.507Z,0
2017-01-18T05:10:19.584Z,0
2017-01-18T05:11:29.071Z,0
2017-01-18T05:12:38.814Z,0
2017-01-18T05:13:47.507Z,0
2017-01-18T05:14:56.581Z,0
2017-01-18T05:16:05.645Z,0
2017-01-18T05:17:14.716Z,0
2017-01-18T05:18:23.789Z,0
2017-01-18T05:19:32.468Z,0
2017-01-18T05:20:41.931Z,0
2017-01-18T05:21:50.994Z,0
2017-01-18T05:23:00.089Z,0
2017-01-18T05:24:09.194Z,0
2017-01-18T05:25:18.276Z,0
2017-01-18T05:26:26.946Z,0
2017-01-18T05:27:36.013Z,0
2017-01-18T05:28:45.083Z,0
2017-01-18T05:29:53.765Z,0
2017-01-18T05:31:02.839Z,0
2017-01-18T05:32:11.910Z,0
2017-01-18T05:33:20.987Z,0
2017-01-18T05:34:30.450Z,0
2017-01-18T05:35:39.546Z,0
2017-01-18T05:36:49.033Z,0
2017-01-18T05:37:58.111Z,0
2017-01-18T05:39:06.799Z,0
2017-01-18T05:40:16.260Z,0
2017-01-18T05:41:25.130Z,0
2017-01-18T05:42:34.588Z,0
2017-01-18T05:43:43.272Z,0
2017-01-18T05:44:52.355Z,0
2017-01-18T05:46:01.427Z,0
2017-01-18T05:47:10.495Z,0
2017-01-18T05:48:19.178Z,0
2017-01-18T05:49:28.301Z,0
2017-01-18T05:50:37.775Z,0
2017-01-18T05:51:46.463Z,0
2017-01-18T05:52:55.544Z,0
2017-01-18T05:54:05.063Z,0
2017-01-18T05:55:14.538Z,0
2017-01-18T05:56:24.009Z,0
2017-01-18T05:57:32.704Z,0
2017-01-18T05:58:42.225Z,0
2017-01-18T05:59:50.902Z,0
2017-01-18T06:00:59.973Z,0
2017-01-18T06:02:08.673Z,0
2017-01-18T06:03:17.747Z,0
2017-01-18T06:04:28.015Z,0
2017-01-18T06:05:36.729Z,0
2017-01-18T06:06:45.794Z,0
2017-01-18T06:07:54.868Z,0
2017-01-18T06:09:03.944Z,0
2017-01-18T06:10:12.637Z,0
2017-01-18T06:11:21.717Z,0
2017-01-18T06:12:30.427Z,0
2017-01-18T06:13:39.570Z,0
2017-01-18T06:14:48.274Z,4
2017-01-18T06:15:57.023Z,4
2017-01-18T06:17:05.739Z,4
2017-01-18T06:18:14.838Z,4
2017-01-18T06:19:23.545Z,4
2017-01-18T06:20:32.651Z,4
2017-01-18T06:21:41.810Z,4
2017-01-18T06:22:50.945Z,4
2017-01-18T06:24:00.044Z,4
2017-01-18T06:25:09.128Z,4
2017-01-18T06:26:17.834Z,4
2017-01-18T06:27:27.289Z,4
2017-01-18T06:28:36.364Z,4
2017-01-18T06:29:45.042Z,4
2017-01-18T06:30:54.117Z,4
2017-01-18T06:32:02.831Z,4
2017-01-18T06:33:12.679Z,4
2017-01-18T06:34:22.157Z,4
2017-01-18T06:35:30.882Z,4
2017-01-18T06:36:40.007Z,4
2017-01-18T06:37:48.697Z,4
2017-01-18T06:38:57.421Z,4
2017-01-18T06:40:06.104Z,4
2017-01-18T06:41:15.228Z,4
2017-01-18T06:42:24.343Z,4
2017-01-18T06:43:33.478Z,4
2017-01-18T06:44:42.987Z,4
2017-01-18T06:45:52.113Z,8
2017-01-18T06:47:01.214Z,8
2017-01-18T06:48:09.960Z,8
2017-01-18T06:49:19.507Z,4
2017-01-18T06:50:28.584Z,4
2017-01-18T06:51:38.105Z,4
2017-01-18T06:52:47.183Z,0
2017-01-18T06:53:55.867Z,4
2017-01-18T06:55:04.600Z,4
2017-01-18T06:56:13.619Z,4
2017-01-18T06:57:22.339Z,4
2017-01-18T06:58:31.491Z,8
2017-01-18T06:59:40.182Z,4
2017-01-18T07:00:50.487Z,4
2017-01-18T07:01:59.663Z,8
2017-01-18T07:03:08.413Z,4
2017-01-18T07:04:17.110Z,8
2017-01-18T07:05:25.811Z,8
2017-01-18T07:06:35.285Z,8
2017-01-18T07:07:44.141Z,8
2017-01-18T07:08:52.869Z,12
2017-01-18T07:10:01.971Z,12
2017-01-18T07:11:11.083Z,12
2017-01-18T07:12:20.197Z,16
2017-01-18T07:13:29.269Z,20
2017-01-18T07:14:37.967Z,20
2017-01-18T07:15:46.666Z,24
2017-01-18T07:16:56.553Z,28
2017-01-18T07:18:05.636Z,28
2017-01-18T07:19:14.717Z,32
2017-01-18T07:20:23.824Z,36
2017-01-18T07:21:33.780Z,40
2017-01-18T07:22:43.247Z,44
2017-01-18T07:23:51.951Z,40
2017-01-18T07:25:01.025Z,48
2017-01-18T07:26:10.122Z,48
2017-01-18T07:27:19.588Z,56
2017-01-18T07:28:29.441Z,60
2017-01-18T07:29:38.544Z,68
2017-01-18T07:30:47.243Z,72
2017-01-18T07:31:56.713Z,76
2017-01-18T07:33:05.791Z,84
2017-01-18T07:34:14.868Z,88
2017-01-18T07:35:24.348Z,92
2017-01-18T07:36:33.429Z,100
2017-01-18T07:37:42.511Z,108
2017-01-18T07:38:51.992Z,112
2017-01-18T07:40:01.479Z,120
2017-01-18T07:41:10.597Z,128
2017-01-18T07:42:19.714Z,136
2017-01-18T07:43:29.214Z,144
2017-01-18T07:44:38.347Z,152
2017-01-18T07:45:47.862Z,156
2017-01-18T07:46:56.958Z,164
2017-01-18T07:48:05.715Z,172
2017-01-18T07:49:14.839Z,176
2017-01-18T07:50:23.916Z,184
2017-01-18T07:51:33.818Z,192
2017-01-18T07:52:42.890Z,196
2017-01-18T07:53:51.620Z,208
2017-01-18T07:55:00.778Z,216
2017-01-18T07:56:09.931Z,220
2017-01-18T07:57:18.634Z,228
2017-01-18T07:58:28.162Z,236
2017-01-18T07:59:36.881Z,240
2017-01-18T08:00:46.353Z,248
2017-01-18T08:01:55.854Z,252
2017-01-18T08:03:04.567Z,260
2017-01-18T08:04:13.693Z,268
2017-01-18T08:05:22.799Z,272
2017-01-18T08:06:32.306Z,280
2017-01-18T08:07:41.849Z,288
2017-01-18T08:08:51.332Z,292
2017-01-18T08:10:00.449Z,296
2017-01-18T08:11:10.009Z,300
2017-01-18T08:12:18.727Z,308
2017-01-18T08:13:28.213Z,316
2017-01-18T08:14:37.330Z,320
2017-01-18T08:15:46.410Z,328
2017-01-18T08:16:55.519Z,332
2017-01-18T08:18:04.208Z,336
2017-01-18T08:19:13.278Z,340
2017-01-18T08:20:21.966Z,340
2017-01-18T08:21:31.532Z,344
2017-01-18T08:22:41.017Z,348
2017-01-18T08:23:50.532Z,352
2017-01-18T08:24:59.602Z,356
2017-01-18T08:26:09.058Z,364
2017-01-18T08:27:17.792Z,364
2017-01-18T08:28:27.388Z,372
2017-01-18T08:29:36.856Z,376
2017-01-18T08:30:46.373Z,376
2017-01-18T08:31:56.003Z,380
2017-01-18T08:33:05.084Z,388
2017-01-18T08:34:14.158Z,388
2017-01-18T08:35:23.890Z,396
2017-01-18T08:36:32.705Z,396
2017-01-18T08:37:41.809Z,396
2017-01-18T08:38:50.541Z,404
2017-01-18T08:39:59.630Z,408
2017-01-18T08:41:09.140Z,408
2017-01-18T08:42:18.232Z,416
2017-01-18T08:43:27.345Z,416
2017-01-18T08:44:36.438Z,420
2017-01-18T08:45:45.578Z,420
2017-01-18T08:46:54.681Z,428
2017-01-18T08:48:03.783Z,428
2017-01-18T08:49:12.882Z,432
2017-01-18T08:50:21.588Z,436
2017-01-18T08:51:31.432Z,436
2017-01-18T08:52:40.118Z,440
2017-01-18T08:53:49.594Z,444
2017-01-18T08:54:59.088Z,444
2017-01-18T08:56:08.956Z,448
2017-01-18T08:57:18.050Z,452
2017-01-18T08:58:26.775Z,452
2017-01-18T08:59:35.497Z,456
2017-01-18T09:00:44.608Z,456
2017-01-18T09:01:53.310Z,460
2017-01-18T09:03:02.023Z,460
2017-01-18T09:04:10.716Z,460
2017-01-18T09:05:19.923Z,464
2017-01-18T09:06:29.025Z,468
2017-01-18T09:07:38.138Z,468
2017-01-18T09:08:47.232Z,472
2017-01-18T09:09:55.966Z,472
2017-01-18T09:11:05.877Z,472
2017-01-18T09:12:14.622Z,476
2017-01-18T09:13:23.708Z,476
2017-01-18T09:14:33.180Z,480
2017-01-18T09:15:42.313Z,476
2017-01-18T09:16:51.778Z,480
2017-01-18T09:18:00.465Z,484
2017-01-18T09:19:10.010Z,484
2017-01-18T09:20:19.091Z,484
2017-01-18T09:21:28.167Z,484
2017-01-18T09:22:37.248Z,488
2017-01-18T09:23:46.413Z,492
2017-01-18T09:24:55.535Z,488
2017-01-18T09:26:04.223Z,488
2017-01-18T09:27:13.318Z,492
2017-01-18T09:28:22.444Z,492
2017-01-18T09:29:31.547Z,496
2017-01-18T09:30:40.673Z,492
2017-01-18T09:31:49.349Z,492
2017-01-18T09:32:58.048Z,496
2017-01-18T09:34:07.129Z,496
2017-01-18T09:35:16.223Z,500
2017-01-18T09:36:25.729Z,500
2017-01-18T09:37:34.463Z,500
2017-01-18T09:38:43.949Z,504
2017-01-18T09:39:53.807Z,504
2017-01-18T09:41:03.372Z,504
2017-01-18T09:42:13.252Z,504
2017-01-18T09:43:21.955Z,500
2017-01-18T09:44:31.018Z,504
2017-01-18T09:45:40.129Z,504
2017-01-18T09:46:49.208Z,508
2017-01-18T09:47:58.291Z,508
2017-01-18T09:49:07.770Z,508
2017-01-18T09:50:16.839Z,512
2017-01-18T09:51:25.918Z,516
2017-01-18T09:52:35.006Z,516
2017-01-18T09:53:44.471Z,520
2017-01-18T09:54:53.552Z,516
2017-01-18T09:56:02.231Z,516
2017-01-18T09:57:11.745Z,520
2017-01-18T09:58:20.822Z,520
2017-01-18T09:59:30.712Z,520
2017-01-18T10:00:39.807Z,520
2017-01-18T10:01:48.880Z,520
2017-01-18T10:02:57.974Z,520
2017-01-18T10:04:07.052Z,524
2017-01-18T10:05:16.558Z,524
2017-01-18T10:06:25.267Z,528
2017-01-18T10:07:34.764Z,532
2017-01-18T10:08:44.244Z,536
2017-01-18T10:09:53.737Z,536
2017-01-18T10:11:02.447Z,536
2017-01-18T10:12:11.151Z,540
2017-01-18T10:13:19.868Z,548
2017-01-18T10:14:28.580Z,556
2017-01-18T10:15:38.052Z,564
2017-01-18T10:16:47.536Z,568
2017-01-18T10:17:56.236Z,572
2017-01-18T10:19:05.325Z,580
2017-01-18T10:20:14.796Z,588
2017-01-18T10:21:24.274Z,592
2017-01-18T10:22:33.348Z,596
2017-01-18T10:23:42.861Z,612
2017-01-18T10:24:52.326Z,624
2017-01-18T10:26:01.399Z,656
2017-01-18T10:27:10.108Z,712
2017-01-18T10:28:19.233Z,792
2017-01-18T10:29:27.929Z,840
2017-01-18T10:30:37.026Z,844
2017-01-18T10:31:46.113Z,848
2017-01-18T10:32:55.226Z,864
2017-01-18T10:34:04.328Z,896
2017-01-18T10:35:14.606Z,964
2017-01-18T10:36:23.328Z,964
2017-01-18T10:37:32.055Z,944
2017-01-18T10:38:41.548Z,952
2017-01-18T10:39:50.245Z,992
2017-01-18T10:40:58.948Z,1024
2017-01-18T10:42:08.825Z,1040
2017-01-18T10:43:17.500Z,1044
2017-01-18T10:44:26.969Z,1080
2017-01-18T10:45:36.475Z,1056
2017-01-18T10:46:45.566Z,1012
2017-01-18T10:47:54.298Z,968
2017-01-18T10:49:02.995Z,936
2017-01-18T10:50:12.098Z,908
2017-01-18T10:51:21.199Z,876
2017-01-18T10:52:30.282Z,896
2017-01-18T10:53:40.214Z,940
2017-01-18T10:54:49.702Z,1004
2017-01-18T10:55:59.200Z,1000
2017-01-18T10:57:07.886Z,992
2017-01-18T10:58:16.585Z,988
2017-01-18T10:59:25.672Z,964
2017-01-18T11:00:34.812Z,976
2017-01-18T11:01:43.524Z,992
2017-01-18T11:02:53.413Z,968
2017-01-18T11:04:02.952Z,944
2017-01-18T11:05:12.442Z,892
2017-01-18T11:06:21.926Z,884
2017-01-18T11:07:31.419Z,836
2017-01-18T11:08:40.906Z,796
2017-01-18T11:09:49.638Z,764
2017-01-18T11:10:58.706Z,744
2017-01-18T11:12:07.405Z,720
2017-01-18T11:13:16.086Z,724
2017-01-18T11:14:25.563Z,744
2017-01-18T11:15:34.259Z,732
2017-01-18T11:16:43.342Z,700
2017-01-18T11:17:52.818Z,672
2017-01-18T11:19:01.884Z,748
2017-01-18T11:20:10.973Z,808
2017-01-18T11:21:20.487Z,832
2017-01-18T11:22:30.354Z,880
2017-01-18T11:23:39.837Z,908
2017-01-18T11:24:48.910Z,916
2017-01-18T11:25:58.010Z,940
2017-01-18T11:27:07.115Z,948
2017-01-18T11:28:15.814Z,944
2017-01-18T11:29:24.894Z,936
2017-01-18T11:30:33.960Z,888
2017-01-18T11:31:42.682Z,820
2017-01-18T11:32:51.380Z,728
2017-01-18T11:34:01.257Z,704
2017-01-18T11:35:10.738Z,712
2017-01-18T11:36:20.913Z,708
2017-01-18T11:37:29.638Z,716
2017-01-18T11:38:39.164Z,692
2017-01-18T11:39:48.253Z,720
2017-01-18T11:40:56.950Z,732
2017-01-18T11:42:06.427Z,720
2017-01-18T11:43:15.544Z,692
2017-01-18T11:44:25.074Z,684
2017-01-18T11:45:34.175Z,672
2017-01-18T11:46:43.325Z,640
2017-01-18T11:47:52.016Z,624
2017-01-18T11:49:01.101Z,636
2017-01-18T11:50:10.162Z,664
2017-01-18T11:51:18.877Z,684
2017-01-18T11:52:27.592Z,704
2017-01-18T11:53:36.774Z,732
2017-01-18T11:54:45.468Z,728
2017-01-18T11:55:54.166Z,716
2017-01-18T11:57:04.296Z,720
2017-01-18T11:58:13.043Z,712
2017-01-18T11:59:22.501Z,704
2017-01-18T12:00:31.199Z,664
2017-01-18T12:01:39.886Z,668
2017-01-18T12:02:48.957Z,636
2017-01-18T12:03:58.052Z,636
2017-01-18T12:05:07.160Z,608
2017-01-18T12:06:16.448Z,580
2017-01-18T12:07:25.146Z,576
2017-01-18T12:08:33.830Z,536
2017-01-18T12:09:43.295Z,572
2017-01-18T12:10:52.396Z,564
2017-01-18T12:12:01.939Z,580
2017-01-18T12:13:10.662Z,588
2017-01-18T12:14:19.757Z,600
2017-01-18T12:15:28.486Z,624
2017-01-18T12:16:37.608Z,660
2017-01-18T12:17:47.495Z,704
2017-01-18T12:18:56.953Z,744
2017-01-18T12:20:06.419Z,776
2017-01-18T12:21:15.918Z,816
2017-01-18T12:22:25.031Z,852
2017-01-18T12:23:34.537Z,888
2017-01-18T12:24:43.631Z,916
2017-01-18T12:25:52.741Z,940
2017-01-18T12:27:01.493Z,952
2017-01-18T12:28:10.615Z,960
2017-01-18T12:29:19.766Z,952
2017-01-18T12:30:28.861Z,940
2017-01-18T12:31:37.563Z,944
2017-01-18T12:32:46.668Z,948
2017-01-18T12:33:56.168Z,940
2017-01-18T12:35:05.720Z,928
2017-01-18T12:36:14.813Z,904
2017-01-18T12:37:23.519Z,876
2017-01-18T12:38:33.407Z,852
2017-01-18T12:39:42.109Z,832
2017-01-18T12:40:51.252Z,808
2017-01-18T12:42:00.806Z,796
2017-01-18T12:43:09.939Z,780
2017-01-18T12:44:19.092Z,764
2017-01-18T12:45:27.818Z,740
2017-01-18T12:46:36.957Z,728
2017-01-18T12:47:46.457Z,688
2017-01-18T12:48:55.199Z,664
2017-01-18T12:50:04.311Z,676
2017-01-18T12:51:13.806Z,668
2017-01-18T12:52:22.891Z,688
2017-01-18T12:53:32.364Z,712
2017-01-18T12:54:41.530Z,712
2017-01-18T12:55:51.033Z,720
2017-01-18T12:56:59.781Z,700
2017-01-18T12:58:09.683Z,716
2017-01-18T12:59:18.369Z,768
2017-01-18T13:00:27.878Z,748
2017-01-18T13:01:36.652Z,756
2017-01-18T13:02:46.136Z,724
2017-01-18T13:03:55.221Z,712
2017-01-18T13:05:05.488Z,732
2017-01-18T13:06:15.373Z,680
2017-01-18T13:07:24.492Z,660
2017-01-18T13:08:34.038Z,648
2017-01-18T13:09:42.794Z,676
2017-01-18T13:10:52.263Z,672
2017-01-18T13:12:01.373Z,708
2017-01-18T13:13:10.092Z,708
2017-01-18T13:14:19.170Z,704
2017-01-18T13:15:28.275Z,700
2017-01-18T13:16:37.384Z,688
2017-01-18T13:17:46.868Z,672
2017-01-18T13:18:55.936Z,652
2017-01-18T13:20:05.031Z,632
2017-01-18T13:21:14.118Z,616
2017-01-18T13:22:55.299Z,592
2017-01-18T13:24:04.428Z,580
2017-01-18T13:25:13.503Z,580
2017-01-18T13:26:23.003Z,604
2017-01-18T13:27:32.097Z,572
2017-01-18T13:28:41.685Z,544
2017-01-18T13:29:50.783Z,556
2017-01-18T13:30:59.903Z,528
2017-01-18T13:32:09.389Z,528
2017-01-18T13:33:18.472Z,540
2017-01-18T13:34:28.266Z,552
2017-01-18T13:35:37.387Z,552
2017-01-18T13:36:46.880Z,568
2017-01-18T13:37:55.590Z,580
2017-01-18T13:39:05.098Z,592
2017-01-18T13:40:15.149Z,596
2017-01-18T13:41:24.244Z,592
2017-01-18T13:42:32.948Z,636
2017-01-18T13:43:42.038Z,664
2017-01-18T13:44:50.813Z,684
2017-01-18T13:46:00.376Z,680
2017-01-18T13:47:09.899Z,668
2017-01-18T13:48:18.982Z,644
2017-01-18T13:49:27.756Z,620
2017-01-18T13:50:36.836Z,580
2017-01-18T13:51:45.885Z,532
2017-01-18T13:52:55.344Z,500
2017-01-18T13:54:04.419Z,488
2017-01-18T13:55:13.922Z,488
2017-01-18T13:56:23.812Z,468
2017-01-18T13:57:33.040Z,468
2017-01-18T13:58:42.149Z,476
2017-01-18T13:59:50.870Z,472
2017-01-18T14:01:00.464Z,456
2017-01-18T14:02:09.676Z,444
2017-01-18T14:03:18.373Z,436
2017-01-18T14:04:27.448Z,436
2017-01-18T14:05:36.163Z,436
2017-01-18T14:06:45.283Z,448
2017-01-18T14:07:54.400Z,464
2017-01-18T14:09:03.791Z,484
2017-01-18T14:10:12.883Z,468
2017-01-18T14:11:22.333Z,484
2017-01-18T14:12:31.063Z,492
2017-01-18T14:13:40.130Z,492
2017-01-18T14:14:49.532Z,496
2017-01-18T14:15:58.635Z,500
2017-01-18T14:17:07.759Z,508
2017-01-18T14:18:16.482Z,516
2017-01-18T14:19:25.638Z,528
2017-01-18T14:20:34.749Z,528
2017-01-18T14:21:44.626Z,528
2017-01-18T14:22:53.733Z,516
2017-01-18T14:24:03.985Z,504
2017-01-18T14:25:13.062Z,492
2017-01-18T14:26:22.313Z,488
2017-01-18T14:27:32.195Z,476
2017-01-18T14:28:42.068Z,460
2017-01-18T14:29:50.785Z,448
2017-01-18T14:30:59.474Z,432
2017-01-18T14:32:08.328Z,420
2017-01-18T14:33:17.005Z,412
2017-01-18T14:34:25.735Z,408
2017-01-18T14:35:34.832Z,408
2017-01-18T14:36:44.352Z,404
2017-01-18T14:37:53.393Z,404
2017-01-18T14:39:02.880Z,404
2017-01-18T14:40:12.734Z,404
2017-01-18T14:41:21.857Z,404
2017-01-18T14:42:30.952Z,404
2017-01-18T14:43:39.818Z,400
2017-01-18T14:44:49.300Z,400
2017-01-18T14:45:58.409Z,400
2017-01-18T14:47:07.105Z,400
2017-01-18T14:48:16.960Z,404
2017-01-18T14:49:26.581Z,404
2017-01-18T14:50:35.266Z,400
2017-01-18T14:51:44.375Z,404
2017-01-18T14:52:53.067Z,404
2017-01-18T14:54:02.159Z,404
2017-01-18T14:55:11.255Z,404
2017-01-18T14:56:19.964Z,400
2017-01-18T14:57:28.664Z,388
2017-01-18T14:58:38.944Z,384
2017-01-18T14:59:48.438Z,384
2017-01-18T15:00:58.591Z,380
2017-01-18T15:02:07.380Z,380
2017-01-18T15:03:16.487Z,372
2017-01-18T15:04:25.549Z,364
2017-01-18T15:05:34.272Z,352
2017-01-18T15:06:43.071Z,344
2017-01-18T15:07:52.629Z,340
2017-01-18T15:09:02.320Z,336
2017-01-18T15:10:11.101Z,332
2017-01-18T15:11:19.843Z,328
2017-01-18T15:12:29.286Z,324
2017-01-18T15:13:38.145Z,316
2017-01-18T15:14:47.678Z,304
2017-01-18T15:15:56.756Z,296
2017-01-18T15:17:05.817Z,288
2017-01-18T15:18:14.956Z,280
2017-01-18T15:19:24.467Z,272
2017-01-18T15:20:33.207Z,264
2017-01-18T15:21:42.295Z,260
2017-01-18T15:22:51.001Z,252
2017-01-18T15:24:00.801Z,244
2017-01-18T15:25:10.273Z,228
2017-01-18T15:26:19.744Z,220
2017-01-18T15:27:30.024Z,212
2017-01-18T15:28:39.928Z,204
2017-01-18T15:29:49.777Z,196
2017-01-18T15:30:58.857Z,188
2017-01-18T15:32:07.933Z,180
2017-01-18T15:33:16.642Z,172
2017-01-18T15:34:25.376Z,164
2017-01-18T15:35:35.201Z,156
2017-01-18T15:36:44.688Z,152
2017-01-18T15:37:53.772Z,140
2017-01-18T15:39:03.637Z,132
2017-01-18T15:40:12.718Z,128
2017-01-18T15:41:21.420Z,120
2017-01-18T15:42:30.905Z,112
2017-01-18T15:43:39.618Z,104
2017-01-18T15:44:48.298Z,100
2017-01-18T15:45:56.983Z,96
2017-01-18T15:47:06.170Z,88
2017-01-18T15:48:15.289Z,84
2017-01-18T15:49:24.377Z,80
2017-01-18T15:50:33.097Z,76
2017-01-18T15:51:42.172Z,68
2017-01-18T15:52:50.982Z,64
2017-01-18T15:54:00.076Z,56
2017-01-18T15:55:09.577Z,52
2017-01-18T15:56:18.675Z,48
2017-01-18T15:57:27.769Z,44
2017-01-18T15:58:36.879Z,44
2017-01-18T15:59:45.978Z,40
2017-01-18T16:00:55.865Z,36
2017-01-18T16:02:04.965Z,36
2017-01-18T16:03:14.032Z,28
2017-01-18T16:04:24.041Z,24
2017-01-18T16:05:33.162Z,24
2017-01-18T16:06:43.062Z,20
2017-01-18T16:07:52.141Z,16
2017-01-18T16:09:01.641Z,16
2017-01-18T16:10:11.262Z,12
2017-01-18T16:11:21.528Z,12
2017-01-18T16:12:31.014Z,8
2017-01-18T16:13:40.496Z,8
2017-01-18T16:14:49.971Z,8
2017-01-18T16:16:00.116Z,8
2017-01-18T16:17:09.196Z,4
2017-01-18T16:18:18.590Z,4
2017-01-18T16:19:27.694Z,4
2017-01-18T16:20:37.152Z,4
2017-01-18T16:21:47.147Z,0
2017-01-18T16:22:56.280Z,4
2017-01-18T16:24:05.375Z,4